sensor_id;sensor_type;location;lat;lon;timestamp;temperature;humidity
23053;DHT22;11694;-36.632;-64.318;2022-09-27T00:01:22;14.70;99.90
23053;DHT22;11694;-36.632;-64.318;2022-09-27T00:03:52;14.60;99.90
23053;DHT22;11694;-36.632;-64.318;2022-09-27T00:06:31;14.40;99.90
23053;DHT22;11694;-36.632;-64.318;2022-09-27T00:08:59;14.30;99.90
23053;DHT22;11694;-36.632;-64.318;2022-09-27T00:11:44;14.20;99.90
23053;DHT22;11694;-36.632;-64.318;2022-09-27T00:14:14;14.10;99.90
23053;DHT22;11694;-36.632;-64.318;2022-09-27T00:16:43;14.10;99.90
23053;DHT22;11694;-36.632;-64.318;2022-09-27T00:19:13;14.00;99.90
23053;DHT22;11694;-36.632;-64.318;2022-09-27T00:21:41;13.90;99.90
23053;DHT22;11694;-36.632;-64.318;2022-09-27T00:24:14;13.70;99.90
23053;DHT22;11694;-36.632;-64.318;2022-09-27T00:26:42;13.70;99.90
23053;DHT22;11694;-36.632;-64.318;2022-09-27T00:29:10;13.80;99.90
23053;DHT22;11694;-36.632;-64.318;2022-09-27T00:31:38;14.30;99.90
23053;DHT22;11694;-36.632;-64.318;2022-09-27T00:34:06;14.50;99.90
23053;DHT22;11694;-36.632;-64.318;2022-09-27T00:36:34;14.80;99.90
23053;DHT22;11694;-36.632;-64.318;2022-09-27T00:39:01;14.90;99.90
23053;DHT22;11694;-36.632;-64.318;2022-09-27T00:41:31;15.00;99.90
23053;DHT22;11694;-36.632;-64.318;2022-09-27T00:47:13;14.50;99.90
23053;DHT22;11694;-36.632;-64.318;2022-09-27T00:52:25;14.50;99.90
23053;DHT22;11694;-36.632;-64.318;2022-09-27T00:54:58;14.20;99.90
23053;DHT22;11694;-36.632;-64.318;2022-09-27T00:57:27;14.10;99.90
23053;DHT22;11694;-36.632;-64.318;2022-09-27T01:00:14;13.90;99.90
23053;DHT22;11694;-36.632;-64.318;2022-09-27T01:02:48;13.50;99.90
23053;DHT22;11694;-36.632;-64.318;2022-09-27T01:05:17;13.40;99.90
23053;DHT22;11694;-36.632;-64.318;2022-09-27T01:07:46;13.30;99.90
23053;DHT22;11694;-36.632;-64.318;2022-09-27T01:10:15;13.20;99.90
23053;DHT22;11694;-36.632;-64.318;2022-09-27T01:13:06;13.10;99.90
23053;DHT22;11694;-36.632;-64.318;2022-09-27T01:15:48;13.10;99.90
23053;DHT22;11694;-36.632;-64.318;2022-09-27T01:18:40;12.90;99.90
23053;DHT22;11694;-36.632;-64.318;2022-09-27T01:23:53;12.60;99.90
23053;DHT22;11694;-36.632;-64.318;2022-09-27T01:35:09;12.30;99.90
23053;DHT22;11694;-36.632;-64.318;2022-09-27T01:38:11;12.30;99.90
23053;DHT22;11694;-36.632;-64.318;2022-09-27T01:40:53;12.30;99.90
23053;DHT22;11694;-36.632;-64.318;2022-09-27T01:43:31;12.20;99.90
23053;DHT22;11694;-36.632;-64.318;2022-09-27T01:46:32;12.10;99.90
23053;DHT22;11694;-36.632;-64.318;2022-09-27T01:49:07;12.00;99.90
23053;DHT22;11694;-36.632;-64.318;2022-09-27T01:51:44;11.90;99.90
23053;DHT22;11694;-36.632;-64.318;2022-09-27T01:54:18;12.00;99.90
23053;DHT22;11694;-36.632;-64.318;2022-09-27T01:56:50;12.00;99.90
23053;DHT22;11694;-36.632;-64.318;2022-09-27T01:59:27;11.90;99.90
23053;DHT22;11694;-36.632;-64.318;2022-09-27T02:01:59;11.70;99.90
23053;DHT22;11694;-36.632;-64.318;2022-09-27T02:04:32;11.60;99.90
23053;DHT22;11694;-36.632;-64.318;2022-09-27T02:07:05;11.70;99.90
23053;DHT22;11694;-36.632;-64.318;2022-09-27T02:09:57;11.60;99.90
23053;DHT22;11694;-36.632;-64.318;2022-09-27T02:12:32;11.60;99.90
23053;DHT22;11694;-36.632;-64.318;2022-09-27T02:15:07;11.40;99.90
23053;DHT22;11694;-36.632;-64.318;2022-09-27T02:30:51;11.40;99.90
23053;DHT22;11694;-36.632;-64.318;2022-09-27T02:36:08;11.40;99.90
23053;DHT22;11694;-36.632;-64.318;2022-09-27T02:38:37;11.40;99.90
23053;DHT22;11694;-36.632;-64.318;2022-09-27T02:41:15;11.50;99.90
23053;DHT22;11694;-36.632;-64.318;2022-09-27T02:43:44;11.60;99.90
23053;DHT22;11694;-36.632;-64.318;2022-09-27T02:54:43;11.70;99.90
23053;DHT22;11694;-36.632;-64.318;2022-09-27T02:57:40;11.70;99.90
23053;DHT22;11694;-36.632;-64.318;2022-09-27T03:00:24;11.80;99.90
23053;DHT22;11694;-36.632;-64.318;2022-09-27T03:03:24;11.90;99.90
23053;DHT22;11694;-36.632;-64.318;2022-09-27T03:06:13;11.80;99.90
23053;DHT22;11694;-36.632;-64.318;2022-09-27T03:08:43;11.80;99.90
23053;DHT22;11694;-36.632;-64.318;2022-09-27T03:11:10;12.00;99.90
23053;DHT22;11694;-36.632;-64.318;2022-09-27T03:13:37;12.10;99.90
23053;DHT22;11694;-36.632;-64.318;2022-09-27T03:16:05;12.20;99.90
23053;DHT22;11694;-36.632;-64.318;2022-09-27T03:18:33;12.60;99.90
23053;DHT22;11694;-36.632;-64.318;2022-09-27T03:21:00;12.80;99.90
23053;DHT22;11694;-36.632;-64.318;2022-09-27T03:23:27;12.90;99.90
23053;DHT22;11694;-36.632;-64.318;2022-09-27T03:25:54;12.80;99.90
23053;DHT22;11694;-36.632;-64.318;2022-09-27T03:28:21;12.90;99.90
23053;DHT22;11694;-36.632;-64.318;2022-09-27T03:30:51;13.20;99.90
23053;DHT22;11694;-36.632;-64.318;2022-09-27T03:33:18;13.30;99.90
23053;DHT22;11694;-36.632;-64.318;2022-09-27T03:35:45;13.30;99.90
23053;DHT22;11694;-36.632;-64.318;2022-09-27T03:38:13;13.30;99.90
23053;DHT22;11694;-36.632;-64.318;2022-09-27T03:40:40;13.40;99.90
23053;DHT22;11694;-36.632;-64.318;2022-09-27T03:43:07;13.50;95.60
23053;DHT22;11694;-36.632;-64.318;2022-09-27T03:45:35;13.70;78.50
23053;DHT22;11694;-36.632;-64.318;2022-09-27T03:48:02;13.90;67.70
23053;DHT22;11694;-36.632;-64.318;2022-09-27T03:50:29;14.00;54.00
23053;DHT22;11694;-36.632;-64.318;2022-09-27T03:52:56;14.10;39.80
23053;DHT22;11694;-36.632;-64.318;2022-09-27T03:55:23;14.10;80.50
23053;DHT22;11694;-36.632;-64.318;2022-09-27T03:57:51;14.00;46.60
23053;DHT22;11694;-36.632;-64.318;2022-09-27T04:00:19;14.00;44.60
23053;DHT22;11694;-36.632;-64.318;2022-09-27T04:02:46;14.00;57.30
23053;DHT22;11694;-36.632;-64.318;2022-09-27T04:05:13;13.80;64.60
23053;DHT22;11694;-36.632;-64.318;2022-09-27T04:07:48;13.70;73.80
23053;DHT22;11694;-36.632;-64.318;2022-09-27T04:10:16;13.70;75.10
23053;DHT22;11694;-36.632;-64.318;2022-09-27T04:12:43;13.50;96.10
23053;DHT22;11694;-36.632;-64.318;2022-09-27T04:15:11;13.30;92.40
23053;DHT22;11694;-36.632;-64.318;2022-09-27T04:17:41;13.30;81.00
23053;DHT22;11694;-36.632;-64.318;2022-09-27T04:20:09;13.40;81.10
23053;DHT22;11694;-36.632;-64.318;2022-09-27T04:22:40;13.40;74.90
23053;DHT22;11694;-36.632;-64.318;2022-09-27T04:25:09;13.50;72.30
23053;DHT22;11694;-36.632;-64.318;2022-09-27T04:27:37;13.50;76.70
23053;DHT22;11694;-36.632;-64.318;2022-09-27T04:30:05;13.50;63.10
23053;DHT22;11694;-36.632;-64.318;2022-09-27T04:32:32;13.60;58.60
23053;DHT22;11694;-36.632;-64.318;2022-09-27T04:35:01;13.60;56.90
23053;DHT22;11694;-36.632;-64.318;2022-09-27T04:37:47;13.70;38.00
23053;DHT22;11694;-36.632;-64.318;2022-09-27T04:40:14;13.80;25.60
23053;DHT22;11694;-36.632;-64.318;2022-09-27T04:42:42;13.80;34.40
23053;DHT22;11694;-36.632;-64.318;2022-09-27T04:45:09;13.70;49.60
23053;DHT22;11694;-36.632;-64.318;2022-09-27T04:47:46;13.50;56.20
23053;DHT22;11694;-36.632;-64.318;2022-09-27T04:50:14;13.50;32.00
23053;DHT22;11694;-36.632;-64.318;2022-09-27T04:52:42;13.60;30.20
23053;DHT22;11694;-36.632;-64.318;2022-09-27T04:55:10;13.50;38.20
23053;DHT22;11694;-36.632;-64.318;2022-09-27T04:57:37;13.40;47.20
23053;DHT22;11694;-36.632;-64.318;2022-09-27T05:00:05;13.40;40.10
23053;DHT22;11694;-36.632;-64.318;2022-09-27T05:02:32;13.40;50.40
23053;DHT22;11694;-36.632;-64.318;2022-09-27T05:04:59;13.30;45.60
23053;DHT22;11694;-36.632;-64.318;2022-09-27T05:07:26;13.30;46.50
23053;DHT22;11694;-36.632;-64.318;2022-09-27T05:09:54;13.20;57.20
23053;DHT22;11694;-36.632;-64.318;2022-09-27T05:12:22;13.20;58.50
23053;DHT22;11694;-36.632;-64.318;2022-09-27T05:14:52;13.20;46.60
23053;DHT22;11694;-36.632;-64.318;2022-09-27T05:17:19;13.20;45.50
23053;DHT22;11694;-36.632;-64.318;2022-09-27T05:19:48;13.20;79.80
23053;DHT22;11694;-36.632;-64.318;2022-09-27T05:22:16;13.00;90.10
23053;DHT22;11694;-36.632;-64.318;2022-09-27T05:24:43;13.00;89.60
23053;DHT22;11694;-36.632;-64.318;2022-09-27T05:27:13;13.00;95.50
23053;DHT22;11694;-36.632;-64.318;2022-09-27T05:29:44;13.00;96.50
23053;DHT22;11694;-36.632;-64.318;2022-09-27T05:32:11;13.10;77.50
23053;DHT22;11694;-36.632;-64.318;2022-09-27T05:34:38;13.20;87.20
23053;DHT22;11694;-36.632;-64.318;2022-09-27T05:37:06;13.10;86.80
23053;DHT22;11694;-36.632;-64.318;2022-09-27T05:39:33;13.10;92.50
23053;DHT22;11694;-36.632;-64.318;2022-09-27T05:42:00;13.00;97.90
23053;DHT22;11694;-36.632;-64.318;2022-09-27T05:44:29;12.90;98.30
23053;DHT22;11694;-36.632;-64.318;2022-09-27T05:46:56;12.80;97.80
23053;DHT22;11694;-36.632;-64.318;2022-09-27T05:49:24;12.80;99.90
23053;DHT22;11694;-36.632;-64.318;2022-09-27T05:51:52;12.80;99.90
23053;DHT22;11694;-36.632;-64.318;2022-09-27T05:54:19;12.80;99.90
23053;DHT22;11694;-36.632;-64.318;2022-09-27T05:56:46;12.80;95.10
23053;DHT22;11694;-36.632;-64.318;2022-09-27T05:59:13;13.00;93.80
23053;DHT22;11694;-36.632;-64.318;2022-09-27T06:01:41;13.00;99.10
23053;DHT22;11694;-36.632;-64.318;2022-09-27T06:04:08;12.80;99.90
23053;DHT22;11694;-36.632;-64.318;2022-09-27T06:06:38;12.70;99.90
23053;DHT22;11694;-36.632;-64.318;2022-09-27T06:09:08;12.60;99.90
23053;DHT22;11694;-36.632;-64.318;2022-09-27T06:11:35;12.70;99.90
23053;DHT22;11694;-36.632;-64.318;2022-09-27T06:14:02;12.60;99.90
23053;DHT22;11694;-36.632;-64.318;2022-09-27T06:16:30;12.60;99.90
23053;DHT22;11694;-36.632;-64.318;2022-09-27T06:18:57;12.60;99.80
23053;DHT22;11694;-36.632;-64.318;2022-09-27T06:21:25;12.70;99.90
23053;DHT22;11694;-36.632;-64.318;2022-09-27T06:23:54;12.70;99.90
23053;DHT22;11694;-36.632;-64.318;2022-09-27T06:26:21;12.70;99.90
23053;DHT22;11694;-36.632;-64.318;2022-09-27T06:28:49;12.50;99.90
23053;DHT22;11694;-36.632;-64.318;2022-09-27T06:34:07;12.40;99.90
23053;DHT22;11694;-36.632;-64.318;2022-09-27T06:36:34;12.50;75.00
23053;DHT22;11694;-36.632;-64.318;2022-09-27T06:39:01;12.80;37.60
23053;DHT22;11694;-36.632;-64.318;2022-09-27T06:41:28;13.00;20.00
23053;DHT22;11694;-36.632;-64.318;2022-09-27T06:43:55;13.10;6.40
23053;DHT22;11694;-36.632;-64.318;2022-09-27T06:46:22;13.20;1.00
23053;DHT22;11694;-36.632;-64.318;2022-09-27T06:48:49;13.30;1.00
23053;DHT22;11694;-36.632;-64.318;2022-09-27T06:51:16;13.20;1.00
23053;DHT22;11694;-36.632;-64.318;2022-09-27T06:53:43;13.40;1.00
23053;DHT22;11694;-36.632;-64.318;2022-09-27T06:56:10;13.40;1.00
23053;DHT22;11694;-36.632;-64.318;2022-09-27T06:58:38;13.40;1.00
23053;DHT22;11694;-36.632;-64.318;2022-09-27T07:01:27;13.50;1.00
23053;DHT22;11694;-36.632;-64.318;2022-09-27T07:03:54;13.50;1.00
23053;DHT22;11694;-36.632;-64.318;2022-09-27T07:06:22;13.50;1.00
23053;DHT22;11694;-36.632;-64.318;2022-09-27T07:08:53;13.30;1.00
23053;DHT22;11694;-36.632;-64.318;2022-09-27T07:11:20;13.20;1.00
23053;DHT22;11694;-36.632;-64.318;2022-09-27T07:13:49;13.00;1.00
23053;DHT22;11694;-36.632;-64.318;2022-09-27T07:16:17;12.80;1.00
23053;DHT22;11694;-36.632;-64.318;2022-09-27T07:18:45;12.50;1.00
23053;DHT22;11694;-36.632;-64.318;2022-09-27T07:21:13;12.30;1.00
23053;DHT22;11694;-36.632;-64.318;2022-09-27T07:23:41;12.20;10.00
23053;DHT22;11694;-36.632;-64.318;2022-09-27T07:26:09;12.10;13.40
23053;DHT22;11694;-36.632;-64.318;2022-09-27T07:28:37;12.00;15.20
23053;DHT22;11694;-36.632;-64.318;2022-09-27T07:31:07;11.90;15.20
23053;DHT22;11694;-36.632;-64.318;2022-09-27T07:33:35;11.90;15.00
23053;DHT22;11694;-36.632;-64.318;2022-09-27T07:36:12;11.80;16.50
23053;DHT22;11694;-36.632;-64.318;2022-09-27T07:38:40;11.80;20.10
23053;DHT22;11694;-36.632;-64.318;2022-09-27T07:41:09;11.70;17.70
23053;DHT22;11694;-36.632;-64.318;2022-09-27T07:43:38;11.60;21.80
23053;DHT22;11694;-36.632;-64.318;2022-09-27T07:46:05;11.60;20.30
23053;DHT22;11694;-36.632;-64.318;2022-09-27T07:48:33;11.50;24.30
23053;DHT22;11694;-36.632;-64.318;2022-09-27T07:51:03;11.40;28.90
23053;DHT22;11694;-36.632;-64.318;2022-09-27T07:53:33;11.30;31.80
23053;DHT22;11694;-36.632;-64.318;2022-09-27T07:56:00;11.20;38.30
23053;DHT22;11694;-36.632;-64.318;2022-09-27T07:58:27;11.10;48.20
23053;DHT22;11694;-36.632;-64.318;2022-09-27T08:00:58;11.00;52.10
23053;DHT22;11694;-36.632;-64.318;2022-09-27T08:03:26;10.90;52.40
23053;DHT22;11694;-36.632;-64.318;2022-09-27T08:05:53;10.80;55.00
23053;DHT22;11694;-36.632;-64.318;2022-09-27T08:08:20;10.80;54.50
23053;DHT22;11694;-36.632;-64.318;2022-09-27T08:10:47;10.80;52.00
23053;DHT22;11694;-36.632;-64.318;2022-09-27T08:13:15;10.80;48.90
23053;DHT22;11694;-36.632;-64.318;2022-09-27T08:15:45;10.80;46.60
23053;DHT22;11694;-36.632;-64.318;2022-09-27T08:18:14;10.80;39.40
23053;DHT22;11694;-36.632;-64.318;2022-09-27T08:20:41;10.90;22.60
23053;DHT22;11694;-36.632;-64.318;2022-09-27T08:23:09;11.10;21.90
23053;DHT22;11694;-36.632;-64.318;2022-09-27T08:25:36;11.10;10.60
23053;DHT22;11694;-36.632;-64.318;2022-09-27T08:28:04;11.30;1.00
23053;DHT22;11694;-36.632;-64.318;2022-09-27T08:30:31;11.40;1.00
23053;DHT22;11694;-36.632;-64.318;2022-09-27T08:32:59;11.30;1.00
23053;DHT22;11694;-36.632;-64.318;2022-09-27T08:35:29;11.30;1.00
23053;DHT22;11694;-36.632;-64.318;2022-09-27T08:37:59;11.20;1.00
23053;DHT22;11694;-36.632;-64.318;2022-09-27T08:43:38;11.40;1.00
23053;DHT22;11694;-36.632;-64.318;2022-09-27T08:47:03;11.40;1.00
23053;DHT22;11694;-36.632;-64.318;2022-09-27T08:49:48;11.60;1.00
23053;DHT22;11694;-36.632;-64.318;2022-09-27T08:52:47;11.70;1.00
23053;DHT22;11694;-36.632;-64.318;2022-09-27T08:55:52;11.70;1.00
23053;DHT22;11694;-36.632;-64.318;2022-09-27T08:58:27;11.80;1.00
23053;DHT22;11694;-36.632;-64.318;2022-09-27T09:01:05;11.90;1.00
23053;DHT22;11694;-36.632;-64.318;2022-09-27T09:03:39;11.70;1.00
23053;DHT22;11694;-36.632;-64.318;2022-09-27T09:06:27;11.70;1.00
23053;DHT22;11694;-36.632;-64.318;2022-09-27T09:17:34;10.40;14.00
23053;DHT22;11694;-36.632;-64.318;2022-09-27T09:20:26;10.20;26.90
23053;DHT22;11694;-36.632;-64.318;2022-09-27T09:33:40;10.10;22.40
23053;DHT22;11694;-36.632;-64.318;2022-09-27T09:38:50;9.80;29.50
23053;DHT22;11694;-36.632;-64.318;2022-09-27T09:41:46;9.90;22.80
23053;DHT22;11694;-36.632;-64.318;2022-09-27T09:44:54;9.90;23.20
23053;DHT22;11694;-36.632;-64.318;2022-09-27T09:49:59;10.00;12.90
23053;DHT22;11694;-36.632;-64.318;2022-09-27T09:55:29;10.20;1.30
23053;DHT22;11694;-36.632;-64.318;2022-09-27T10:00:59;10.30;1.00
23053;DHT22;11694;-36.632;-64.318;2022-09-27T10:03:29;10.30;1.00
23053;DHT22;11694;-36.632;-64.318;2022-09-27T10:05:56;10.40;1.00
23053;DHT22;11694;-36.632;-64.318;2022-09-27T10:08:23;10.40;1.00
23053;DHT22;11694;-36.632;-64.318;2022-09-27T10:10:51;10.40;1.00
23053;DHT22;11694;-36.632;-64.318;2022-09-27T10:13:20;10.40;1.00
23053;DHT22;11694;-36.632;-64.318;2022-09-27T10:15:58;10.40;1.00
23053;DHT22;11694;-36.632;-64.318;2022-09-27T10:18:28;10.40;1.00
23053;DHT22;11694;-36.632;-64.318;2022-09-27T10:21:01;10.30;1.00
23053;DHT22;11694;-36.632;-64.318;2022-09-27T10:23:29;10.30;1.00
23053;DHT22;11694;-36.632;-64.318;2022-09-27T10:26:00;10.30;1.00
23053;DHT22;11694;-36.632;-64.318;2022-09-27T10:28:32;10.30;1.00
23053;DHT22;11694;-36.632;-64.318;2022-09-27T10:31:07;10.30;1.00
23053;DHT22;11694;-36.632;-64.318;2022-09-27T10:33:37;10.40;1.00
23053;DHT22;11694;-36.632;-64.318;2022-09-27T10:36:22;10.40;1.00
23053;DHT22;11694;-36.632;-64.318;2022-09-27T10:38:55;10.50;1.00
23053;DHT22;11694;-36.632;-64.318;2022-09-27T10:44:24;10.60;1.00
23053;DHT22;11694;-36.632;-64.318;2022-09-27T10:46:57;10.60;1.00
23053;DHT22;11694;-36.632;-64.318;2022-09-27T10:52:18;10.70;1.00
23053;DHT22;11694;-36.632;-64.318;2022-09-27T10:55:26;10.80;1.00
23053;DHT22;11694;-36.632;-64.318;2022-09-27T10:57:54;10.90;1.00
23053;DHT22;11694;-36.632;-64.318;2022-09-27T11:00:30;10.90;1.00
23053;DHT22;11694;-36.632;-64.318;2022-09-27T11:03:03;10.90;1.00
23053;DHT22;11694;-36.632;-64.318;2022-09-27T11:05:37;11.00;1.00
23053;DHT22;11694;-36.632;-64.318;2022-09-27T11:08:21;11.00;1.00
23053;DHT22;11694;-36.632;-64.318;2022-09-27T11:11:06;11.10;1.00
23053;DHT22;11694;-36.632;-64.318;2022-09-27T11:16:40;12.00;1.00
23053;DHT22;11694;-36.632;-64.318;2022-09-27T11:27:44;13.50;1.00
23053;DHT22;11694;-36.632;-64.318;2022-09-27T11:30:21;13.70;1.00
23053;DHT22;11694;-36.632;-64.318;2022-09-27T11:36:10;14.00;1.00
23053;DHT22;11694;-36.632;-64.318;2022-09-27T11:44:43;14.70;99.90
23053;DHT22;11694;-36.632;-64.318;2022-09-27T11:50:19;15.00;99.90
23053;DHT22;11694;-36.632;-64.318;2022-09-27T11:58:58;15.50;99.90
23053;DHT22;11694;-36.632;-64.318;2022-09-27T12:07:40;15.60;99.90
23053;DHT22;11694;-36.632;-64.318;2022-09-27T12:10:14;15.50;99.90
23053;DHT22;11694;-36.632;-64.318;2022-09-27T12:12:45;15.50;99.90
23053;DHT22;11694;-36.632;-64.318;2022-09-27T12:15:19;15.60;99.90
23053;DHT22;11694;-36.632;-64.318;2022-09-27T12:17:51;15.60;99.90
23053;DHT22;11694;-36.632;-64.318;2022-09-27T12:20:34;15.90;99.90
23053;DHT22;11694;-36.632;-64.318;2022-09-27T12:23:32;16.20;99.90
23053;DHT22;11694;-36.632;-64.318;2022-09-27T12:25:59;16.30;99.90
23053;DHT22;11694;-36.632;-64.318;2022-09-27T12:28:51;16.30;99.90
23053;DHT22;11694;-36.632;-64.318;2022-09-27T12:31:21;16.50;99.90
23053;DHT22;11694;-36.632;-64.318;2022-09-27T12:36:40;16.90;99.90
23053;DHT22;11694;-36.632;-64.318;2022-09-27T12:41:43;17.30;99.90
23053;DHT22;11694;-36.632;-64.318;2022-09-27T12:44:12;17.60;99.90
23053;DHT22;11694;-36.632;-64.318;2022-09-27T12:54:37;18.00;99.90
23053;DHT22;11694;-36.632;-64.318;2022-09-27T13:00:19;18.40;99.90
23053;DHT22;11694;-36.632;-64.318;2022-09-27T13:03:15;18.50;99.90
23053;DHT22;11694;-36.632;-64.318;2022-09-27T13:11:36;19.10;99.90
23053;DHT22;11694;-36.632;-64.318;2022-09-27T13:14:14;19.40;99.90
23053;DHT22;11694;-36.632;-64.318;2022-09-27T13:16:43;19.40;99.90
23053;DHT22;11694;-36.632;-64.318;2022-09-27T13:19:37;19.70;99.90
23053;DHT22;11694;-36.632;-64.318;2022-09-27T13:22:34;19.50;99.90
23053;DHT22;11694;-36.632;-64.318;2022-09-27T13:24:56;19.40;99.90
23053;DHT22;11694;-36.632;-64.318;2022-09-27T13:27:36;19.40;99.90
23053;DHT22;11694;-36.632;-64.318;2022-09-27T13:32:38;19.40;99.90
23053;DHT22;11694;-36.632;-64.318;2022-09-27T13:35:19;19.70;99.90
23053;DHT22;11694;-36.632;-64.318;2022-09-27T13:40:28;20.10;99.90
23053;DHT22;11694;-36.632;-64.318;2022-09-27T13:48:49;20.30;99.90
23053;DHT22;11694;-36.632;-64.318;2022-09-27T13:51:29;20.40;99.90
23053;DHT22;11694;-36.632;-64.318;2022-09-27T13:54:02;20.70;99.90
23053;DHT22;11694;-36.632;-64.318;2022-09-27T13:59:32;21.00;99.90
23053;DHT22;11694;-36.632;-64.318;2022-09-27T14:02:22;21.20;99.90
23053;DHT22;11694;-36.632;-64.318;2022-09-27T14:04:51;20.90;99.90
23053;DHT22;11694;-36.632;-64.318;2022-09-27T14:07:37;20.70;99.90
23053;DHT22;11694;-36.632;-64.318;2022-09-27T14:10:13;20.90;99.90
23053;DHT22;11694;-36.632;-64.318;2022-09-27T14:12:41;20.90;99.90
23053;DHT22;11694;-36.632;-64.318;2022-09-27T14:15:19;21.00;99.90
23053;DHT22;11694;-36.632;-64.318;2022-09-27T14:17:50;21.40;99.90
23053;DHT22;11694;-36.632;-64.318;2022-09-27T14:20:42;21.70;99.90
23053;DHT22;11694;-36.632;-64.318;2022-09-27T14:23:21;21.50;99.90
23053;DHT22;11694;-36.632;-64.318;2022-09-27T14:25:50;21.70;99.90
23053;DHT22;11694;-36.632;-64.318;2022-09-27T14:28:29;22.30;99.90
23053;DHT22;11694;-36.632;-64.318;2022-09-27T14:31:16;22.20;99.90
23053;DHT22;11694;-36.632;-64.318;2022-09-27T14:33:44;21.90;99.90
23053;DHT22;11694;-36.632;-64.318;2022-09-27T14:36:30;21.90;99.90
23053;DHT22;11694;-36.632;-64.318;2022-09-27T14:39:31;22.20;99.90
23053;DHT22;11694;-36.632;-64.318;2022-09-27T14:41:58;22.60;99.90
23053;DHT22;11694;-36.632;-64.318;2022-09-27T14:44:26;22.50;99.90
23053;DHT22;11694;-36.632;-64.318;2022-09-27T14:47:19;22.30;99.90
23053;DHT22;11694;-36.632;-64.318;2022-09-27T14:50:06;22.00;99.90
23053;DHT22;11694;-36.632;-64.318;2022-09-27T14:52:38;21.70;99.90
23053;DHT22;11694;-36.632;-64.318;2022-09-27T14:55:18;21.90;99.90
23053;DHT22;11694;-36.632;-64.318;2022-09-27T14:57:59;21.80;99.90
23053;DHT22;11694;-36.632;-64.318;2022-09-27T15:00:33;21.80;99.90
23053;DHT22;11694;-36.632;-64.318;2022-09-27T15:03:06;21.90;99.90
23053;DHT22;11694;-36.632;-64.318;2022-09-27T15:05:36;22.00;99.90
23053;DHT22;11694;-36.632;-64.318;2022-09-27T15:08:10;21.90;99.90
23053;DHT22;11694;-36.632;-64.318;2022-09-27T15:10:41;22.00;99.90
23053;DHT22;11694;-36.632;-64.318;2022-09-27T15:13:13;22.00;99.90
23053;DHT22;11694;-36.632;-64.318;2022-09-27T15:15:41;22.20;99.90
23053;DHT22;11694;-36.632;-64.318;2022-09-27T15:18:31;22.60;99.90
23053;DHT22;11694;-36.632;-64.318;2022-09-27T15:21:00;22.50;99.90
23053;DHT22;11694;-36.632;-64.318;2022-09-27T15:23:39;22.40;99.90
23053;DHT22;11694;-36.632;-64.318;2022-09-27T15:26:19;22.40;99.90
23053;DHT22;11694;-36.632;-64.318;2022-09-27T15:28:49;22.60;99.90
23053;DHT22;11694;-36.632;-64.318;2022-09-27T15:31:31;22.80;99.90
23053;DHT22;11694;-36.632;-64.318;2022-09-27T15:33:58;22.90;99.90
23053;DHT22;11694;-36.632;-64.318;2022-09-27T15:36:58;22.90;99.90
23053;DHT22;11694;-36.632;-64.318;2022-09-27T15:39:45;23.20;99.90
23053;DHT22;11694;-36.632;-64.318;2022-09-27T15:42:17;23.40;99.90
23053;DHT22;11694;-36.632;-64.318;2022-09-27T15:44:52;23.40;99.90
23053;DHT22;11694;-36.632;-64.318;2022-09-27T15:47:41;23.20;99.90
23053;DHT22;11694;-36.632;-64.318;2022-09-27T15:50:30;22.90;99.90
23053;DHT22;11694;-36.632;-64.318;2022-09-27T15:53:00;23.00;99.90
23053;DHT22;11694;-36.632;-64.318;2022-09-27T15:55:29;22.90;99.90
23053;DHT22;11694;-36.632;-64.318;2022-09-27T15:58:07;22.70;99.90
23053;DHT22;11694;-36.632;-64.318;2022-09-27T16:00:56;22.90;99.90
23053;DHT22;11694;-36.632;-64.318;2022-09-27T16:03:25;23.20;99.90
23053;DHT22;11694;-36.632;-64.318;2022-09-27T16:05:56;23.10;99.90
23053;DHT22;11694;-36.632;-64.318;2022-09-27T16:08:24;23.10;99.90
23053;DHT22;11694;-36.632;-64.318;2022-09-27T16:10:53;23.00;99.90
23053;DHT22;11694;-36.632;-64.318;2022-09-27T16:13:21;23.30;99.90
23053;DHT22;11694;-36.632;-64.318;2022-09-27T16:15:49;23.60;99.90
23053;DHT22;11694;-36.632;-64.318;2022-09-27T16:18:25;23.40;99.90
23053;DHT22;11694;-36.632;-64.318;2022-09-27T16:20:52;23.40;99.90
23053;DHT22;11694;-36.632;-64.318;2022-09-27T16:23:19;23.50;99.90
23053;DHT22;11694;-36.632;-64.318;2022-09-27T16:25:46;23.50;99.90
23053;DHT22;11694;-36.632;-64.318;2022-09-27T16:28:13;23.50;99.90
23053;DHT22;11694;-36.632;-64.318;2022-09-27T16:30:40;23.40;99.90
23053;DHT22;11694;-36.632;-64.318;2022-09-27T16:33:07;23.50;99.90
23053;DHT22;11694;-36.632;-64.318;2022-09-27T16:35:37;23.50;99.90
23053;DHT22;11694;-36.632;-64.318;2022-09-27T16:38:04;23.50;99.90
23053;DHT22;11694;-36.632;-64.318;2022-09-27T16:40:31;23.60;99.90
23053;DHT22;11694;-36.632;-64.318;2022-09-27T16:42:58;23.50;99.90
23053;DHT22;11694;-36.632;-64.318;2022-09-27T16:45:25;23.50;99.90
23053;DHT22;11694;-36.632;-64.318;2022-09-27T16:48:00;23.60;99.90
23053;DHT22;11694;-36.632;-64.318;2022-09-27T16:50:27;23.70;99.90
23053;DHT22;11694;-36.632;-64.318;2022-09-27T16:53:12;23.50;99.90
23053;DHT22;11694;-36.632;-64.318;2022-09-27T16:55:39;23.30;99.90
23053;DHT22;11694;-36.632;-64.318;2022-09-27T16:58:06;23.40;99.90
23053;DHT22;11694;-36.632;-64.318;2022-09-27T17:00:34;23.30;99.90
23053;DHT22;11694;-36.632;-64.318;2022-09-27T17:03:01;23.30;99.90
23053;DHT22;11694;-36.632;-64.318;2022-09-27T17:05:28;23.40;99.90
23053;DHT22;11694;-36.632;-64.318;2022-09-27T17:07:55;23.50;99.90
23053;DHT22;11694;-36.632;-64.318;2022-09-27T17:10:23;23.80;99.90
23053;DHT22;11694;-36.632;-64.318;2022-09-27T17:12:50;23.50;99.90
23053;DHT22;11694;-36.632;-64.318;2022-09-27T17:15:18;23.30;99.10
23053;DHT22;11694;-36.632;-64.318;2022-09-27T17:17:49;23.40;99.90
23053;DHT22;11694;-36.632;-64.318;2022-09-27T17:20:16;23.40;99.90
23053;DHT22;11694;-36.632;-64.318;2022-09-27T17:22:43;23.30;99.90
23053;DHT22;11694;-36.632;-64.318;2022-09-27T17:25:11;23.00;99.90
23053;DHT22;11694;-36.632;-64.318;2022-09-27T17:27:41;22.90;99.90
23053;DHT22;11694;-36.632;-64.318;2022-09-27T17:30:08;23.00;99.90
23053;DHT22;11694;-36.632;-64.318;2022-09-27T17:32:36;23.00;99.90
23053;DHT22;11694;-36.632;-64.318;2022-09-27T17:35:04;23.10;99.90
23053;DHT22;11694;-36.632;-64.318;2022-09-27T17:37:31;23.30;99.90
23053;DHT22;11694;-36.632;-64.318;2022-09-27T17:39:58;23.50;99.90
23053;DHT22;11694;-36.632;-64.318;2022-09-27T17:42:25;23.40;99.90
23053;DHT22;11694;-36.632;-64.318;2022-09-27T17:44:54;23.70;99.90
23053;DHT22;11694;-36.632;-64.318;2022-09-27T17:47:21;23.80;99.90
23053;DHT22;11694;-36.632;-64.318;2022-09-27T17:50:07;23.90;99.90
23053;DHT22;11694;-36.632;-64.318;2022-09-27T17:52:56;24.00;99.90
23053;DHT22;11694;-36.632;-64.318;2022-09-27T17:55:24;24.00;96.90
23053;DHT22;11694;-36.632;-64.318;2022-09-27T17:57:52;23.70;99.90
23053;DHT22;11694;-36.632;-64.318;2022-09-27T18:00:19;23.90;99.90